sensor_id;sensor_type;location;lat;lon;timestamp;temperature;humidity
38606;DHT22;24365;48.446;8.850;2023-03-01T00:03:00;-2.00;56.30
38606;DHT22;24365;48.446;8.850;2023-03-01T00:08:01;-2.00;56.20
38606;DHT22;24365;48.446;8.850;2023-03-01T00:13:02;-2.00;56.10
38606;DHT22;24365;48.446;8.850;2023-03-01T00:18:02;-2.00;56.00
38606;DHT22;24365;48.446;8.850;2023-03-01T00:23:03;-2.10;56.10
38606;DHT22;24365;48.446;8.850;2023-03-01T00:28:04;-2.10;56.10
38606;DHT22;24365;48.446;8.850;2023-03-01T00:33:05;-2.20;56.20
38606;DHT22;24365;48.446;8.850;2023-03-01T00:38:05;-2.20;56.30
38606;DHT22;24365;48.446;8.850;2023-03-01T00:43:06;-2.20;56.50
38606;DHT22;24365;48.446;8.850;2023-03-01T00:48:07;-2.30;56.50
38606;DHT22;24365;48.446;8.850;2023-03-01T00:53:07;-2.30;56.60
38606;DHT22;24365;48.446;8.850;2023-03-01T00:58:08;-2.40;56.60
38606;DHT22;24365;48.446;8.850;2023-03-01T01:03:09;-2.40;56.70
38606;DHT22;24365;48.446;8.850;2023-03-01T01:08:09;-2.40;56.80
38606;DHT22;24365;48.446;8.850;2023-03-01T01:13:10;-2.50;56.70
38606;DHT22;24365;48.446;8.850;2023-03-01T01:18:11;-2.50;56.70
38606;DHT22;24365;48.446;8.850;2023-03-01T01:23:12;-2.50;56.80
38606;DHT22;24365;48.446;8.850;2023-03-01T01:28:12;-2.60;56.70
38606;DHT22;24365;48.446;8.850;2023-03-01T01:33:13;-2.60;56.90
38606;DHT22;24365;48.446;8.850;2023-03-01T01:38:14;-2.70;57.00
38606;DHT22;24365;48.446;8.850;2023-03-01T01:43:19;-2.70;56.90
38606;DHT22;24365;48.446;8.850;2023-03-01T01:48:20;-2.80;57.00
38606;DHT22;24365;48.446;8.850;2023-03-01T01:53:22;-2.80;57.10
38606;DHT22;24365;48.446;8.850;2023-03-01T01:58:24;-2.90;57.10
38606;DHT22;24365;48.446;8.850;2023-03-01T02:03:26;-2.90;57.10
38606;DHT22;24365;48.446;8.850;2023-03-01T02:08:30;-2.90;57.30
38606;DHT22;24365;48.446;8.850;2023-03-01T02:13:32;-3.00;57.20
38606;DHT22;24365;48.446;8.850;2023-03-01T02:18:33;-2.90;57.40
38606;DHT22;24365;48.446;8.850;2023-03-01T02:23:33;-3.00;57.10
38606;DHT22;24365;48.446;8.850;2023-03-01T02:28:38;-3.00;57.80
38606;DHT22;24365;48.446;8.850;2023-03-01T02:33:40;-3.10;58.10
38606;DHT22;24365;48.446;8.850;2023-03-01T02:38:42;-3.10;58.40
38606;DHT22;24365;48.446;8.850;2023-03-01T02:43:43;-3.10;58.90
38606;DHT22;24365;48.446;8.850;2023-03-01T02:48:45;-3.10;59.50
38606;DHT22;24365;48.446;8.850;2023-03-01T02:58:47;-2.90;59.70
38606;DHT22;24365;48.446;8.850;2023-03-01T03:03:52;-3.00;61.00
38606;DHT22;24365;48.446;8.850;2023-03-01T03:08:53;-3.00;62.10
38606;DHT22;24365;48.446;8.850;2023-03-01T03:13:54;-3.00;62.00
38606;DHT22;24365;48.446;8.850;2023-03-01T03:18:55;-3.00;62.20
38606;DHT22;24365;48.446;8.850;2023-03-01T03:24:05;-3.00;62.30
38606;DHT22;24365;48.446;8.850;2023-03-01T03:29:06;-3.00;62.80
38606;DHT22;24365;48.446;8.850;2023-03-01T03:34:06;-3.00;62.80
38606;DHT22;24365;48.446;8.850;2023-03-01T03:39:07;-2.90;62.90
38606;DHT22;24365;48.446;8.850;2023-03-01T03:44:08;-2.80;62.50
38606;DHT22;24365;48.446;8.850;2023-03-01T03:49:08;-2.70;62.70
38606;DHT22;24365;48.446;8.850;2023-03-01T03:54:09;-2.60;62.60
38606;DHT22;24365;48.446;8.850;2023-03-01T03:59:11;-2.60;62.60
38606;DHT22;24365;48.446;8.850;2023-03-01T04:04:11;-2.60;62.90
38606;DHT22;24365;48.446;8.850;2023-03-01T04:09:12;-2.60;62.70
38606;DHT22;24365;48.446;8.850;2023-03-01T04:14:13;-2.50;62.50
38606;DHT22;24365;48.446;8.850;2023-03-01T04:19:13;-2.50;64.20
38606;DHT22;24365;48.446;8.850;2023-03-01T04:24:15;-2.70;64.80
38606;DHT22;24365;48.446;8.850;2023-03-01T04:29:16;-2.80;66.60
38606;DHT22;24365;48.446;8.850;2023-03-01T04:34:17;-2.60;65.40
38606;DHT22;24365;48.446;8.850;2023-03-01T04:39:18;-2.60;65.20
38606;DHT22;24365;48.446;8.850;2023-03-01T04:44:19;-2.50;64.60
38606;DHT22;24365;48.446;8.850;2023-03-01T04:49:19;-2.50;64.90
38606;DHT22;24365;48.446;8.850;2023-03-01T04:54:20;-2.40;65.30
38606;DHT22;24365;48.446;8.850;2023-03-01T04:59:21;-2.40;65.00
38606;DHT22;24365;48.446;8.850;2023-03-01T05:04:24;-2.40;64.80
38606;DHT22;24365;48.446;8.850;2023-03-01T05:09:25;-2.40;65.50
38606;DHT22;24365;48.446;8.850;2023-03-01T05:14:26;-2.30;65.80
38606;DHT22;24365;48.446;8.850;2023-03-01T05:19:29;-2.30;67.30
38606;DHT22;24365;48.446;8.850;2023-03-01T05:24:32;-2.30;67.40
38606;DHT22;24365;48.446;8.850;2023-03-01T05:29:33;-2.30;67.80
38606;DHT22;24365;48.446;8.850;2023-03-01T05:34:35;-2.20;68.50
38606;DHT22;24365;48.446;8.850;2023-03-01T05:39:37;-2.20;66.80
38606;DHT22;24365;48.446;8.850;2023-03-01T05:44:38;-2.10;67.10
38606;DHT22;24365;48.446;8.850;2023-03-01T05:49:38;-2.10;67.90
38606;DHT22;24365;48.446;8.850;2023-03-01T05:54:39;-2.10;67.20
38606;DHT22;24365;48.446;8.850;2023-03-01T05:59:40;-2.10;67.40
38606;DHT22;24365;48.446;8.850;2023-03-01T06:04:40;-2.10;67.50
38606;DHT22;24365;48.446;8.850;2023-03-01T06:09:41;-2.10;67.40
38606;DHT22;24365;48.446;8.850;2023-03-01T06:14:42;-2.10;67.10
38606;DHT22;24365;48.446;8.850;2023-03-01T06:19:42;-2.00;66.70
38606;DHT22;24365;48.446;8.850;2023-03-01T06:24:43;-1.90;65.60
38606;DHT22;24365;48.446;8.850;2023-03-01T06:29:44;-1.90;66.00
38606;DHT22;24365;48.446;8.850;2023-03-01T06:34:44;-1.90;66.60
38606;DHT22;24365;48.446;8.850;2023-03-01T06:39:45;-1.90;66.40
38606;DHT22;24365;48.446;8.850;2023-03-01T06:44:46;-1.90;67.30
38606;DHT22;24365;48.446;8.850;2023-03-01T06:49:47;-1.90;68.50
38606;DHT22;24365;48.446;8.850;2023-03-01T06:54:47;-1.70;67.20
38606;DHT22;24365;48.446;8.850;2023-03-01T06:59:48;-1.60;67.10
38606;DHT22;24365;48.446;8.850;2023-03-01T07:04:49;-1.60;67.30
38606;DHT22;24365;48.446;8.850;2023-03-01T07:09:50;-1.70;69.00
38606;DHT22;24365;48.446;8.850;2023-03-01T07:14:51;-1.60;69.50
38606;DHT22;24365;48.446;8.850;2023-03-01T07:19:51;-1.60;70.40
38606;DHT22;24365;48.446;8.850;2023-03-01T07:24:52;-1.50;69.80
38606;DHT22;24365;48.446;8.850;2023-03-01T07:29:53;-1.40;69.00
38606;DHT22;24365;48.446;8.850;2023-03-01T07:34:53;-1.30;69.30
38606;DHT22;24365;48.446;8.850;2023-03-01T07:39:54;-1.20;69.10
38606;DHT22;24365;48.446;8.850;2023-03-01T07:44:55;-1.20;68.10
38606;DHT22;24365;48.446;8.850;2023-03-01T07:49:55;-1.20;67.90
38606;DHT22;24365;48.446;8.850;2023-03-01T07:54:56;-1.10;67.70
38606;DHT22;24365;48.446;8.850;2023-03-01T07:59:57;-1.10;66.60
38606;DHT22;24365;48.446;8.850;2023-03-01T08:04:57;-1.00;66.10
38606;DHT22;24365;48.446;8.850;2023-03-01T08:09:58;-0.90;65.70
38606;DHT22;24365;48.446;8.850;2023-03-01T08:14:59;-0.70;64.40
38606;DHT22;24365;48.446;8.850;2023-03-01T08:19:59;-0.40;62.80
38606;DHT22;24365;48.446;8.850;2023-03-01T08:25:00;-0.20;61.50
38606;DHT22;24365;48.446;8.850;2023-03-01T08:30:01;0.00;61.40
38606;DHT22;24365;48.446;8.850;2023-03-01T08:35:02;0.10;60.80
38606;DHT22;24365;48.446;8.850;2023-03-01T08:40:02;0.10;60.20
38606;DHT22;24365;48.446;8.850;2023-03-01T08:45:07;0.20;60.10
38606;DHT22;24365;48.446;8.850;2023-03-01T08:50:08;0.30;60.60
38606;DHT22;24365;48.446;8.850;2023-03-01T08:55:09;0.50;60.50
38606;DHT22;24365;48.446;8.850;2023-03-01T09:00:10;0.70;60.00
38606;DHT22;24365;48.446;8.850;2023-03-01T09:05:15;0.90;58.80
38606;DHT22;24365;48.446;8.850;2023-03-01T09:10:16;1.30;57.60
38606;DHT22;24365;48.446;8.850;2023-03-01T09:15:16;1.60;55.50
38606;DHT22;24365;48.446;8.850;2023-03-01T09:20:17;1.70;54.00
38606;DHT22;24365;48.446;8.850;2023-03-01T09:25:18;1.70;52.50
38606;DHT22;24365;48.446;8.850;2023-03-01T09:30:18;1.70;52.70
38606;DHT22;24365;48.446;8.850;2023-03-01T09:35:19;1.90;52.50
38606;DHT22;24365;48.446;8.850;2023-03-01T09:40:21;1.90;51.30
38606;DHT22;24365;48.446;8.850;2023-03-01T09:45:27;1.90;51.50
38606;DHT22;24365;48.446;8.850;2023-03-01T09:50:30;2.20;50.40
38606;DHT22;24365;48.446;8.850;2023-03-01T10:06:35;2.20;49.20
38606;DHT22;24365;48.446;8.850;2023-03-01T10:11:37;2.30;50.10
38606;DHT22;24365;48.446;8.850;2023-03-01T10:22:24;2.80;49.20
38606;DHT22;24365;48.446;8.850;2023-03-01T10:27:25;3.10;46.50
38606;DHT22;24365;48.446;8.850;2023-03-01T10:32:25;3.10;46.10
38606;DHT22;24365;48.446;8.850;2023-03-01T10:37:26;3.30;46.00
38606;DHT22;24365;48.446;8.850;2023-03-01T10:47:29;3.50;45.50
38606;DHT22;24365;48.446;8.850;2023-03-01T10:57:32;3.90;45.00
38606;DHT22;24365;48.446;8.850;2023-03-01T11:02:36;4.00;43.90
38606;DHT22;24365;48.446;8.850;2023-03-01T11:07:51;4.10;43.30
38606;DHT22;24365;48.446;8.850;2023-03-01T11:12:52;4.30;42.90
38606;DHT22;24365;48.446;8.850;2023-03-01T11:17:54;4.50;43.10
38606;DHT22;24365;48.446;8.850;2023-03-01T11:22:57;4.60;42.00
38606;DHT22;24365;48.446;8.850;2023-03-01T11:27:59;4.50;41.70
38606;DHT22;24365;48.446;8.850;2023-03-01T12:40:31;6.80;37.00
38606;DHT22;24365;48.446;8.850;2023-03-01T12:51:02;6.90;36.20
38606;DHT22;24365;48.446;8.850;2023-03-01T12:56:22;7.10;35.70
38606;DHT22;24365;48.446;8.850;2023-03-01T13:11:29;7.60;34.90
38606;DHT22;24365;48.446;8.850;2023-03-01T13:21:37;7.70;34.70
38606;DHT22;24365;48.446;8.850;2023-03-01T13:31:57;8.10;34.50
38606;DHT22;24365;48.446;8.850;2023-03-01T13:37:08;8.00;33.80
38606;DHT22;24365;48.446;8.850;2023-03-01T13:47:28;8.10;34.10
38606;DHT22;24365;48.446;8.850;2023-03-01T13:52:42;8.10;33.60
38606;DHT22;24365;48.446;8.850;2023-03-01T13:57:50;8.00;33.70
38606;DHT22;24365;48.446;8.850;2023-03-01T14:08:21;8.10;33.90
38606;DHT22;24365;48.446;8.850;2023-03-01T14:23:42;7.80;34.80
38606;DHT22;24365;48.446;8.850;2023-03-01T14:28:45;7.80;35.20
38606;DHT22;24365;48.446;8.850;2023-03-01T14:33:46;7.80;34.30
38606;DHT22;24365;48.446;8.850;2023-03-01T14:38:54;7.70;34.30
38606;DHT22;24365;48.446;8.850;2023-03-01T14:43:55;7.80;34.70
38606;DHT22;24365;48.446;8.850;2023-03-01T14:54:21;8.00;34.10
38606;DHT22;24365;48.446;8.850;2023-03-01T14:59:24;8.00;34.10
38606;DHT22;24365;48.446;8.850;2023-03-01T15:04:26;7.90;34.40
38606;DHT22;24365;48.446;8.850;2023-03-01T15:09:28;7.90;34.70
38606;DHT22;24365;48.446;8.850;2023-03-01T15:14:40;8.00;34.50
38606;DHT22;24365;48.446;8.850;2023-03-01T15:19:45;7.90;34.70
38606;DHT22;24365;48.446;8.850;2023-03-01T15:24:47;7.80;34.70
38606;DHT22;24365;48.446;8.850;2023-03-01T15:34:55;7.80;34.90
38606;DHT22;24365;48.446;8.850;2023-03-01T15:39:56;7.70;35.50
38606;DHT22;24365;48.446;8.850;2023-03-01T15:50:21;7.40;35.30
38606;DHT22;24365;48.446;8.850;2023-03-01T15:55:23;7.40;35.60
38606;DHT22;24365;48.446;8.850;2023-03-01T16:00:24;7.20;36.00
38606;DHT22;24365;48.446;8.850;2023-03-01T16:05:29;7.10;36.00
38606;DHT22;24365;48.446;8.850;2023-03-01T16:10:31;7.00;36.50
38606;DHT22;24365;48.446;8.850;2023-03-01T16:15:32;7.00;36.80
38606;DHT22;24365;48.446;8.850;2023-03-01T16:20:34;6.90;36.90
38606;DHT22;24365;48.446;8.850;2023-03-01T16:25:35;6.80;37.20
38606;DHT22;24365;48.446;8.850;2023-03-01T16:30:39;6.60;37.30
38606;DHT22;24365;48.446;8.850;2023-03-01T16:35:40;6.50;37.90
38606;DHT22;24365;48.446;8.850;2023-03-01T16:40:41;6.30;38.40
38606;DHT22;24365;48.446;8.850;2023-03-01T16:45:46;6.10;38.90
38606;DHT22;24365;48.446;8.850;2023-03-01T16:51:00;6.00;39.30
38606;DHT22;24365;48.446;8.850;2023-03-01T16:56:01;5.80;39.90
38606;DHT22;24365;48.446;8.850;2023-03-01T17:01:10;5.70;41.90
38606;DHT22;24365;48.446;8.850;2023-03-01T17:06:15;5.60;41.40
38606;DHT22;24365;48.446;8.850;2023-03-01T17:11:17;5.50;43.00
38606;DHT22;24365;48.446;8.850;2023-03-01T17:16:18;5.40;43.20
38606;DHT22;24365;48.446;8.850;2023-03-01T17:21:19;5.30;42.50
38606;DHT22;24365;48.446;8.850;2023-03-01T17:26:20;5.10;43.60
38606;DHT22;24365;48.446;8.850;2023-03-01T17:31:21;5.00;43.40
38606;DHT22;24365;48.446;8.850;2023-03-01T17:36:22;5.00;44.30
38606;DHT22;24365;48.446;8.850;2023-03-01T17:41:23;4.90;44.00
38606;DHT22;24365;48.446;8.850;2023-03-01T17:46:24;4.60;43.90
38606;DHT22;24365;48.446;8.850;2023-03-01T17:51:26;4.50;44.00
38606;DHT22;24365;48.446;8.850;2023-03-01T17:56:27;4.40;44.50
38606;DHT22;24365;48.446;8.850;2023-03-01T18:01:27;4.30;45.00
38606;DHT22;24365;48.446;8.850;2023-03-01T18:06:28;4.20;45.30
38606;DHT22;24365;48.446;8.850;2023-03-01T18:11:29;4.30;46.00
38606;DHT22;24365;48.446;8.850;2023-03-01T18:16:30;4.20;45.80
38606;DHT22;24365;48.446;8.850;2023-03-01T18:21:31;4.20;45.80
38606;DHT22;24365;48.446;8.850;2023-03-01T18:26:31;4.20;46.10
38606;DHT22;24365;48.446;8.850;2023-03-01T18:31:32;4.20;46.20
38606;DHT22;24365;48.446;8.850;2023-03-01T18:36:34;4.20;46.50
38606;DHT22;24365;48.446;8.850;2023-03-01T18:41:35;4.20;46.90
38606;DHT22;24365;48.446;8.850;2023-03-01T18:46:36;4.20;47.30
38606;DHT22;24365;48.446;8.850;2023-03-01T18:51:39;4.20;46.60
38606;DHT22;24365;48.446;8.850;2023-03-01T18:56:40;4.00;47.30
38606;DHT22;24365;48.446;8.850;2023-03-01T19:01:41;3.90;47.90
38606;DHT22;24365;48.446;8.850;2023-03-01T19:06:42;3.90;48.00
38606;DHT22;24365;48.446;8.850;2023-03-01T19:11:43;3.90;48.30
38606;DHT22;24365;48.446;8.850;2023-03-01T19:16:44;3.80;48.30
38606;DHT22;24365;48.446;8.850;2023-03-01T19:26:54;3.70;48.60
38606;DHT22;24365;48.446;8.850;2023-03-01T19:31:59;3.70;47.60
38606;DHT22;24365;48.446;8.850;2023-03-01T19:42:13;3.50;48.60
38606;DHT22;24365;48.446;8.850;2023-03-01T19:47:13;3.50;48.60
38606;DHT22;24365;48.446;8.850;2023-03-01T19:52:14;3.50;48.90
38606;DHT22;24365;48.446;8.850;2023-03-01T19:57:15;3.40;49.90
38606;DHT22;24365;48.446;8.850;2023-03-01T20:02:15;3.40;49.10
38606;DHT22;24365;48.446;8.850;2023-03-01T20:07:17;3.50;48.80
38606;DHT22;24365;48.446;8.850;2023-03-01T20:12:17;3.20;49.00
38606;DHT22;24365;48.446;8.850;2023-03-01T20:17:18;3.10;49.50
38606;DHT22;24365;48.446;8.850;2023-03-01T20:22:19;3.20;49.20
38606;DHT22;24365;48.446;8.850;2023-03-01T20:27:20;3.10;47.60
38606;DHT22;24365;48.446;8.850;2023-03-01T20:32:20;3.10;48.90
38606;DHT22;24365;48.446;8.850;2023-03-01T20:37:21;3.10;48.40
38606;DHT22;24365;48.446;8.850;2023-03-01T20:42:22;3.10;48.70
38606;DHT22;24365;48.446;8.850;2023-03-01T20:47:23;3.10;48.40
38606;DHT22;24365;48.446;8.850;2023-03-01T20:52:24;3.00;48.90
38606;DHT22;24365;48.446;8.850;2023-03-01T20:57:24;3.00;49.00
38606;DHT22;24365;48.446;8.850;2023-03-01T21:02:25;2.90;48.60
38606;DHT22;24365;48.446;8.850;2023-03-01T21:07:26;2.70;49.80
38606;DHT22;24365;48.446;8.850;2023-03-01T21:12:26;2.80;50.10
38606;DHT22;24365;48.446;8.850;2023-03-01T21:17:27;2.70;49.80
38606;DHT22;24365;48.446;8.850;2023-03-01T21:22:28;2.60;50.20
38606;DHT22;24365;48.446;8.850;2023-03-01T21:27:29;2.60;50.30
38606;DHT22;24365;48.446;8.850;2023-03-01T21:32:30;2.50;50.50
38606;DHT22;24365;48.446;8.850;2023-03-01T21:37:32;2.50;50.90
38606;DHT22;24365;48.446;8.850;2023-03-01T21:42:33;2.40;51.10
38606;DHT22;24365;48.446;8.850;2023-03-01T21:47:35;2.30;51.20
38606;DHT22;24365;48.446;8.850;2023-03-01T21:52:38;2.30;51.70
38606;DHT22;24365;48.446;8.850;2023-03-01T21:57:39;2.20;51.40
38606;DHT22;24365;48.446;8.850;2023-03-01T22:02:43;2.20;51.40
38606;DHT22;24365;48.446;8.850;2023-03-01T22:07:44;2.10;51.70
38606;DHT22;24365;48.446;8.850;2023-03-01T22:12:44;2.00;52.10
38606;DHT22;24365;48.446;8.850;2023-03-01T22:17:45;1.90;52.10
38606;DHT22;24365;48.446;8.850;2023-03-01T22:22:46;1.80;52.40
38606;DHT22;24365;48.446;8.850;2023-03-01T22:27:46;1.80;52.60
38606;DHT22;24365;48.446;8.850;2023-03-01T22:32:47;1.80;52.70
38606;DHT22;24365;48.446;8.850;2023-03-01T22:37:48;1.70;52.90
38606;DHT22;24365;48.446;8.850;2023-03-01T22:42:49;1.60;52.60
38606;DHT22;24365;48.446;8.850;2023-03-01T22:47:49;1.60;53.40
38606;DHT22;24365;48.446;8.850;2023-03-01T22:52:51;1.60;53.30
38606;DHT22;24365;48.446;8.850;2023-03-01T22:57:52;1.60;53.10
38606;DHT22;24365;48.446;8.850;2023-03-01T23:02:53;1.40;53.00
38606;DHT22;24365;48.446;8.850;2023-03-01T23:07:54;1.30;53.60
38606;DHT22;24365;48.446;8.850;2023-03-01T23:12:55;1.30;53.90
38606;DHT22;24365;48.446;8.850;2023-03-01T23:17:56;1.20;53.90
38606;DHT22;24365;48.446;8.850;2023-03-01T23:22:56;1.20;54.10
38606;DHT22;24365;48.446;8.850;2023-03-01T23:28:00;1.20;54.10
38606;DHT22;24365;48.446;8.850;2023-03-01T23:33:02;0.90;54.20
38606;DHT22;24365;48.446;8.850;2023-03-01T23:38:03;0.90;54.80
38606;DHT22;24365;48.446;8.850;2023-03-01T23:43:04;0.90;55.00
38606;DHT22;24365;48.446;8.850;2023-03-01T23:48:04;0.90;54.90
38606;DHT22;24365;48.446;8.850;2023-03-01T23:53:05;0.80;55.10
38606;DHT22;24365;48.446;8.850;2023-03-01T23:58:06;0.80;55.00
